Time;durP1;ratioP1;P1;durP2;ratioP2;P2;SDS_P1;SDS_P2;PMS_P1;PMS_P2;Temp;Humidity;BMP_temperature;BMP_pressure;BME280_temperature;BME280_humidity;BME280_pressure;Samples;Min_cycle;Max_cycle;Signal;HPM_P1;HPM_P2
2022/11/06 00:02:23;;;;;;;7.03;3.63;;;;;;;6.65;100.00;99064.75;5049244;28;20080;-63
2022/11/06 00:08:13;;;;;;;11.60;4.53;;;;;;;6.48;100.00;99061.16;5061150;28;20053;-65
2022/11/06 00:10:57;;;;;;;9.00;4.47;;;;;;;6.51;100.00;99058.41;5048109;28;20045;-61
2022/11/06 00:13:42;;;;;;;7.85;3.63;;;;;;;6.53;100.00;99067.00;5048158;28;20041;-62
2022/11/06 00:16:27;;;;;;;7.32;4.20;;;;;;;6.63;100.00;99062.22;5046672;28;20056;-65
2022/11/06 00:19:13;;;;;;;10.50;4.13;;;;;;;6.67;100.00;99069.88;5048011;28;20511;-61
2022/11/06 00:21:58;;;;;;;7.90;3.53;;;;;;;6.71;100.00;99074.88;5047716;28;20479;-61
2022/11/06 00:24:42;;;;;;;7.50;3.90;;;;;;;6.69;100.00;99065.44;5047017;28;20055;-63
2022/11/06 00:27:27;;;;;;;7.05;3.38;;;;;;;6.63;100.00;99064.81;5048143;28;20053;-60
2022/11/06 00:30:12;;;;;;;7.78;3.80;;;;;;;6.60;100.00;99070.19;5046271;28;20110;-62
2022/11/06 00:32:57;;;;;;;12.35;5.63;;;;;;;6.60;100.00;99072.78;5047684;28;20464;-60
2022/11/06 00:35:41;;;;;;;9.90;4.20;;;;;;;6.45;100.00;99065.66;5046524;28;20057;-61
2022/11/06 00:38:26;;;;;;;8.82;4.78;;;;;;;6.36;100.00;99059.16;5045043;28;20068;-65
2022/11/06 00:41:13;;;;;;;7.53;3.50;;;;;;;6.50;100.00;99064.56;5047091;28;20103;-61
2022/11/06 00:44:00;;;;;;;7.43;3.95;;;;;;;6.45;100.00;99074.34;5046450;28;20227;-62
2022/11/06 00:46:45;;;;;;;9.00;4.35;;;;;;;6.38;100.00;99072.94;5046620;28;20480;-61
2022/11/06 00:49:30;;;;;;;10.10;3.97;;;;;;;6.31;100.00;99076.72;5045510;28;20045;-63
2022/11/06 00:52:15;;;;;;;7.38;3.90;;;;;;;6.38;100.00;99080.75;5046619;28;20052;-61
2022/11/06 00:54:59;;;;;;;7.47;4.03;;;;;;;6.28;100.00;99080.34;5045237;28;20033;-64
2022/11/06 00:57:44;;;;;;;7.90;3.75;;;;;;;6.47;100.00;99067.31;5046537;28;20056;-63
2022/11/06 01:00:28;;;;;;;6.40;3.97;;;;;;;6.53;100.00;99077.44;5046517;28;20052;-61
2022/11/06 01:03:13;;;;;;;7.28;3.65;;;;;;;6.45;100.00;99071.72;5045834;28;20090;-64
2022/11/06 01:06:10;;;;;;;8.65;3.60;;;;;;;6.21;100.00;99069.34;5048141;28;20076;-61
2022/11/06 01:08:55;;;;;;;11.40;4.82;;;;;;;6.16;100.00;99069.56;5059440;28;20044;-60
2022/11/06 01:11:44;;;;;;;8.27;4.05;;;;;;;6.12;100.00;99062.81;5046751;28;20052;-61
2022/11/06 01:14:29;;;;;;;10.65;4.03;;;;;;;6.28;100.00;99059.50;5046134;28;20049;-61
2022/11/06 01:17:13;;;;;;;11.70;4.55;;;;;;;6.12;100.00;99061.97;5046371;28;20061;-60
2022/11/06 01:19:58;;;;;;;7.53;3.53;;;;;;;6.20;100.00;99059.84;5046627;28;20045;-62
2022/11/06 01:22:42;;;;;;;7.80;4.00;;;;;;;6.21;100.00;99040.72;5047270;28;20037;-61
2022/11/06 01:25:27;;;;;;;8.90;4.07;;;;;;;6.08;100.00;99052.59;5047554;28;20404;-61
2022/11/06 01:28:12;;;;;;;10.13;4.60;;;;;;;5.94;100.00;99038.44;5041969;28;20048;-61
2022/11/06 01:31:08;;;;;;;9.88;4.35;;;;;;;5.95;100.00;99050.53;5046672;28;20124;-60
2022/11/06 01:33:55;;;;;;;8.55;4.00;;;;;;;5.97;100.00;99040.06;5038995;28;20056;-66
2022/11/06 01:36:39;;;;;;;11.43;4.93;;;;;;;5.78;100.00;99043.47;5046394;28;20048;-61
2022/11/06 01:39:24;;;;;;;10.07;4.22;;;;;;;5.84;100.00;99031.97;5046441;28;20128;-61
2022/11/06 01:42:11;;;;;;;8.77;4.50;;;;;;;5.84;100.00;99034.56;5045541;28;20450;-59
2022/11/06 01:45:22;;;;;;;11.07;4.22;;;;;;;5.83;100.00;99032.88;5046525;28;20049;-60
2022/11/06 01:48:06;;;;;;;7.10;4.30;;;;;;;5.81;100.00;99021.72;5044843;28;20064;-60
2022/11/06 01:50:55;;;;;;;11.98;4.63;;;;;;;5.79;100.00;99012.19;5045845;28;20487;-60
2022/11/06 01:53:40;;;;;;;11.38;4.40;;;;;;;5.68;100.00;99006.63;5041005;28;20429;-61
2022/11/06 01:56:25;;;;;;;10.25;4.72;;;;;;;5.59;100.00;99012.25;5046310;28;20059;-62
2022/11/06 01:59:14;;;;;;;9.40;4.00;;;;;;;5.54;100.00;99013.31;5046327;28;20419;-61
2022/11/06 02:01:59;;;;;;;10.07;5.03;;;;;;;5.49;100.00;98999.66;5045772;28;20090;-61
2022/11/06 02:04:47;;;;;;;10.55;4.72;;;;;;;5.50;100.00;99013.50;5045028;28;20073;-62
2022/11/06 02:07:32;;;;;;;13.45;5.20;;;;;;;5.43;100.00;99013.75;5045881;28;20045;-59
2022/11/06 02:10:17;;;;;;;10.95;5.00;;;;;;;5.47;100.00;99003.25;5044073;28;20385;-62
2022/11/06 02:13:14;;;;;;;14.75;4.72;;;;;;;5.41;100.00;98999.16;5045695;28;20056;-66
2022/11/06 02:16:19;;;;;;;9.82;4.40;;;;;;;5.38;100.00;99007.94;5045323;28;20495;-61
2022/11/06 02:19:21;;;;;;;9.63;4.57;;;;;;;5.33;100.00;99006.44;5045089;28;20046;-60
2022/11/06 02:22:20;;;;;;;14.55;4.45;;;;;;;5.26;100.00;99000.66;5045299;28;20064;-65
2022/11/06 02:25:04;;;;;;;13.10;4.90;;;;;;;5.26;100.00;99011.03;5045095;28;20056;-64
2022/11/06 02:28:09;;;;;;;9.40;4.47;;;;;;;5.20;100.00;99006.97;5045232;28;20037;-61
2022/11/06 02:31:00;;;;;;;11.15;4.85;;;;;;;5.23;100.00;99006.84;5042842;28;20499;-61
2022/11/06 02:33:55;;;;;;;9.75;5.05;;;;;;;5.24;100.00;99012.88;5043740;28;20052;-61
2022/11/06 02:36:50;;;;;;;9.60;4.63;;;;;;;5.17;100.00;99015.72;5043501;28;20044;-61
2022/11/06 02:39:37;;;;;;;14.07;5.07;;;;;;;5.23;100.00;99019.81;5046455;28;20499;-60
2022/11/06 02:42:25;;;;;;;12.73;4.68;;;;;;;5.24;100.00;99015.47;5043673;28;20049;-61
2022/11/06 02:45:13;;;;;;;9.15;5.07;;;;;;;5.14;100.00;99023.63;5045185;28;20558;-60
2022/11/06 02:48:00;;;;;;;10.93;4.40;;;;;;;5.14;100.00;99017.63;5043688;28;20457;-60
2022/11/06 02:50:49;;;;;;;10.32;5.57;;;;;;;5.11;100.00;99020.34;5044056;28;20041;-60
2022/11/06 02:53:36;;;;;;;10.23;4.22;;;;;;;5.13;100.00;99039.28;5043107;28;20049;-62
2022/11/06 02:56:24;;;;;;;9.70;4.65;;;;;;;5.08;100.00;99039.50;5043498;28;20136;-60
2022/11/06 02:59:13;;;;;;;9.60;4.80;;;;;;;5.03;100.00;99033.63;5045076;28;20045;-60
2022/11/06 03:02:02;;;;;;;12.88;4.55;;;;;;;5.07;100.00;99035.22;5033034;28;20073;-60
2022/11/06 03:04:54;;;;;;;8.32;4.60;;;;;;;4.99;100.00;99032.94;5043874;28;20385;-64
2022/11/06 03:07:48;;;;;;;12.48;5.10;;;;;;;5.00;100.00;99036.34;5045813;28;20491;-61
2022/11/06 03:10:44;;;;;;;15.05;4.90;;;;;;;5.03;100.00;99055.25;5045157;28;20053;-61
2022/11/06 03:13:45;;;;;;;13.52;5.63;;;;;;;5.00;100.00;99045.00;5043108;28;20047;-60
2022/11/06 03:16:45;;;;;;;13.57;5.43;;;;;;;5.00;100.00;99034.63;5044475;28;20060;-64
2022/11/06 03:19:43;;;;;;;12.68;4.75;;;;;;;4.98;100.00;99041.63;5046216;28;20044;-60
2022/11/06 03:22:43;;;;;;;14.68;5.53;;;;;;;4.89;100.00;99053.25;5046897;28;20079;-61
2022/11/06 03:25:33;;;;;;;12.02;5.50;;;;;;;4.90;100.00;99041.94;5048690;28;20045;-64
2022/11/06 03:28:37;;;;;;;10.07;4.53;;;;;;;4.91;100.00;99051.41;5048906;28;20455;-62
2022/11/06 03:31:47;;;;;;;10.40;5.13;;;;;;;4.88;100.00;99048.94;5047373;28;20056;-61
2022/11/06 03:34:40;;;;;;;10.80;5.25;;;;;;;4.87;100.00;99061.97;5047525;28;20060;-61
2022/11/06 03:37:35;;;;;;;11.13;4.53;;;;;;;4.84;100.00;99064.69;5049111;28;20053;-60
2022/11/06 03:40:24;;;;;;;8.13;4.50;;;;;;;4.85;100.00;99058.63;5047383;28;20033;-60
2022/11/06 03:43:13;;;;;;;11.85;4.60;;;;;;;4.82;100.00;99059.56;5049280;28;20048;-61
2022/11/06 03:46:00;;;;;;;9.88;4.57;;;;;;;4.77;100.00;99064.94;5046592;28;20465;-59
2022/11/06 03:48:51;;;;;;;8.68;4.25;;;;;;;4.80;100.00;99056.19;5046458;28;20045;-60
2022/11/06 03:51:45;;;;;;;9.73;4.60;;;;;;;4.86;100.00;99070.69;5047033;28;20064;-60
2022/11/06 03:54:43;;;;;;;9.98;4.43;;;;;;;4.86;100.00;99060.31;5047753;28;20192;-59
2022/11/06 03:58:11;;;;;;;8.68;4.63;;;;;;;4.87;100.00;99067.16;5046269;28;20110;-61
2022/11/06 04:00:57;;;;;;;9.48;4.60;;;;;;;4.83;100.00;99076.00;5048596;28;20072;-60
2022/11/06 04:04:16;;;;;;;7.20;4.45;;;;;;;4.92;100.00;99071.28;5048899;28;20044;-64
2022/11/06 04:07:11;;;;;;;7.57;4.15;;;;;;;4.99;100.00;99071.03;5050121;28;20051;-60
2022/11/06 04:16:08;;;;;;;9.13;3.92;;;;;;;4.85;100.00;99093.19;5048062;28;20048;-66
2022/11/06 04:18:52;;;;;;;9.88;4.55;;;;;;;4.89;100.00;99093.94;5046902;28;20053;-63
2022/11/06 04:22:16;;;;;;;9.00;4.60;;;;;;;4.87;100.00;99090.53;5047617;28;20037;-60
2022/11/06 04:29:10;;;;;;;12.85;4.53;;;;;;;4.83;100.00;99101.97;5046698;28;20044;-61
2022/11/06 04:32:10;;;;;;;8.60;4.20;;;;;;;4.81;100.00;99097.66;5047327;28;20052;-62
2022/11/06 04:35:04;;;;;;;11.02;4.72;;;;;;;4.90;100.00;99111.19;5046077;28;20400;-64
2022/11/06 04:38:06;;;;;;;11.65;4.78;;;;;;;4.81;100.00;99115.84;5046266;28;20044;-61
2022/11/06 04:40:54;;;;;;;9.77;4.72;;;;;;;4.95;100.00;99111.00;5047884;28;20052;-60
2022/11/06 04:43:50;;;;;;;11.07;4.43;;;;;;;4.84;100.00;99109.69;5032610;28;20056;-60
2022/11/06 04:46:45;;;;;;;10.00;4.68;;;;;;;4.92;100.00;99111.97;5046618;28;20048;-60
2022/11/06 04:49:32;;;;;;;12.82;4.95;;;;;;;4.85;100.00;99113.97;5047715;28;20444;-60
2022/11/06 04:52:22;;;;;;;8.27;4.50;;;;;;;4.83;100.00;99118.38;5047203;28;20049;-60
2022/11/06 04:55:07;;;;;;;8.88;4.32;;;;;;;4.86;100.00;99118.28;5047833;28;20433;-61
2022/11/06 04:57:51;;;;;;;10.55;4.20;;;;;;;4.95;100.00;99111.84;5046474;28;20048;-60
2022/11/06 05:00:40;;;;;;;8.85;5.00;;;;;;;5.09;100.00;99115.66;5039954;28;20045;-65
2022/11/06 05:03:25;;;;;;;11.20;4.30;;;;;;;5.22;100.00;99126.41;5047854;28;20054;-60
2022/11/06 05:06:10;;;;;;;10.57;4.00;;;;;;;5.21;100.00;99122.09;5046941;28;20411;-62
2022/11/06 05:08:56;;;;;;;9.60;4.00;;;;;;;5.21;100.00;99114.31;5048648;28;20049;-60
2022/11/06 05:11:41;;;;;;;8.93;4.22;;;;;;;5.16;100.00;99117.94;5048671;28;20051;-60
2022/11/06 05:14:25;;;;;;;8.13;3.38;;;;;;;5.22;100.00;99121.22;5046349;28;20044;-60
2022/11/06 05:17:09;;;;;;;12.77;4.35;;;;;;;5.29;100.00;99126.09;5046970;28;20044;-61
2022/11/06 05:19:54;;;;;;;9.18;3.78;;;;;;;5.38;100.00;99129.22;5047931;28;20067;-62
2022/11/06 05:22:59;;;;;;;11.38;4.07;;;;;;;5.33;100.00;99115.56;5047115;28;20041;-62
2022/11/06 05:25:44;;;;;;;6.40;3.75;;;;;;;5.22;100.00;99118.59;5046110;28;20514;-62
2022/11/06 05:28:28;;;;;;;6.20;3.33;;;;;;;5.38;100.00;99117.06;5047136;28;20159;-60
2022/11/06 05:31:13;;;;;;;6.80;3.40;;;;;;;5.37;100.00;99114.53;5047609;28;20037;-61
2022/11/06 05:33:57;;;;;;;6.80;3.83;;;;;;;5.28;100.00;99110.56;5048732;28;20076;-61
2022/11/06 05:36:42;;;;;;;13.98;4.43;;;;;;;5.28;100.00;99121.81;5046276;28;20037;-60
2022/11/06 05:39:26;;;;;;;8.98;4.30;;;;;;;5.17;100.00;99116.19;5046689;28;20076;-61
2022/11/06 05:42:11;;;;;;;8.57;3.80;;;;;;;5.10;100.00;99125.13;5048174;28;20102;-60
2022/11/06 05:44:56;;;;;;;9.73;4.43;;;;;;;5.09;100.00;99120.84;5045906;28;20159;-61
2022/11/06 05:47:40;;;;;;;8.90;4.35;;;;;;;4.96;100.00;99123.91;5047151;28;20053;-61
2022/11/06 05:50:25;;;;;;;7.28;4.28;;;;;;;4.87;100.00;99122.56;5043045;28;20036;-60
2022/11/06 05:53:09;;;;;;;10.48;5.05;;;;;;;4.81;100.00;99118.44;5046782;28;20092;-60
2022/11/06 05:55:54;;;;;;;9.40;4.65;;;;;;;4.69;100.00;99124.09;5046906;28;20952;-62
2022/11/06 05:58:39;;;;;;;7.82;4.07;;;;;;;4.87;100.00;99125.16;5046921;28;20060;-64
2022/11/06 06:01:23;;;;;;;12.57;4.32;;;;;;;4.88;100.00;99119.03;5046208;28;20086;-62
2022/11/06 06:04:08;;;;;;;11.93;4.80;;;;;;;4.79;100.00;99122.00;5036617;28;20033;-63
2022/11/06 06:06:53;;;;;;;8.75;4.53;;;;;;;4.85;100.00;99126.13;5046004;28;20041;-61
2022/11/06 06:09:37;;;;;;;8.20;4.68;;;;;;;4.76;100.00;99127.31;5057379;28;20059;-60
2022/11/06 06:12:25;;;;;;;6.47;4.03;;;;;;;4.76;100.00;99125.56;5046620;28;20045;-52
2022/11/06 06:15:10;;;;;;;9.75;5.32;;;;;;;5.40;100.00;99130.81;5046030;28;20057;-61
2022/11/06 06:18:06;;;;;;;21.52;8.80;;;;;;;5.34;100.00;99132.84;5047954;28;20393;-50
2022/11/06 06:20:59;;;;;;;9.27;4.75;;;;;;;4.95;100.00;99137.81;5070651;28;20045;-55
2022/11/06 06:23:43;;;;;;;12.35;5.72;;;;;;;4.95;100.00;99135.22;5045948;28;20096;-49
2022/11/06 06:26:28;;;;;;;11.40;4.63;;;;;;;4.84;100.00;99132.19;5045414;28;20063;-47
2022/11/06 06:29:12;;;;;;;14.02;5.82;;;;;;;4.89;100.00;99143.25;5046374;28;20260;-46
2022/11/06 06:31:57;;;;;;;6.72;4.53;;;;;;;4.74;100.00;99137.75;5045446;28;20045;-53
2022/11/06 06:34:41;;;;;;;10.85;5.07;;;;;;;4.75;100.00;99136.84;5043974;28;20056;-48
2022/11/06 06:37:26;;;;;;;9.32;4.90;;;;;;;4.90;100.00;99145.81;5045023;28;20516;-48
2022/11/06 06:40:11;;;;;;;9.93;4.45;;;;;;;5.01;100.00;99136.75;5045910;28;20041;-51
2022/11/06 06:42:57;;;;;;;11.25;6.18;;;;;;;5.91;100.00;99138.25;5045453;28;20095;-48
2022/11/06 06:45:41;;;;;;;7.75;3.95;;;;;;;5.33;100.00;99138.94;5046498;28;20503;-57
2022/11/06 06:48:26;;;;;;;9.05;5.00;;;;;;;5.25;100.00;99137.53;5044277;28;20064;-47
2022/11/06 06:51:11;;;;;;;10.13;4.43;;;;;;;5.20;100.00;99142.06;5045072;28;20057;-48
2022/11/06 06:53:56;;;;;;;9.02;4.35;;;;;;;5.08;100.00;99138.19;5045892;28;20057;-53
2022/11/06 06:56:41;;;;;;;8.35;4.20;;;;;;;4.98;100.00;99134.28;5044817;28;20144;-57
2022/11/06 06:59:27;;;;;;;8.02;3.72;;;;;;;5.04;100.00;99142.66;5045998;28;20037;-51
2022/11/06 07:02:12;;;;;;;11.65;4.80;;;;;;;5.07;100.00;99141.69;5045539;28;20049;-57
2022/11/06 07:04:57;;;;;;;9.68;4.25;;;;;;;5.10;100.00;99143.31;5045443;28;20041;-48
2022/11/06 07:07:42;;;;;;;10.88;4.90;;;;;;;5.05;100.00;99143.50;5045620;28;20412;-56
2022/11/06 07:10:26;;;;;;;12.10;4.22;;;;;;;5.04;100.00;99147.84;5045592;28;20091;-51
2022/11/06 07:13:11;;;;;;;8.30;4.20;;;;;;;4.98;100.00;99150.69;5044774;28;20488;-51
2022/11/06 07:15:55;;;;;;;9.75;4.47;;;;;;;5.03;100.00;99150.50;5046029;28;20048;-52
2022/11/06 07:18:40;;;;;;;8.85;4.07;;;;;;;5.08;100.00;99145.13;5044423;28;20483;-51
2022/11/06 07:21:24;;;;;;;9.95;4.65;;;;;;;5.28;100.00;99152.13;5045962;28;20096;-49
2022/11/06 07:24:09;;;;;;;8.80;4.13;;;;;;;5.24;100.00;99153.16;5039739;28;20140;-58
2022/11/06 07:26:54;;;;;;;12.27;6.18;;;;;;;5.75;100.00;99155.41;5033046;28;20053;-60
2022/11/06 07:29:39;;;;;;;9.10;4.45;;;;;;;5.95;100.00;99157.16;5044747;28;20048;-47
2022/11/06 07:32:23;;;;;;;6.75;3.65;;;;;;;6.15;100.00;99158.91;5041955;28;20515;-53
2022/11/06 07:35:08;;;;;;;8.00;4.50;;;;;;;6.02;100.00;99147.34;5045466;28;20519;-48
2022/11/06 07:37:53;;;;;;;13.90;5.15;;;;;;;5.78;100.00;99158.72;5045386;28;20041;-52
2022/11/06 07:40:38;;;;;;;7.80;3.95;;;;;;;5.85;100.00;99159.31;5044171;28;20404;-50
2022/11/06 07:43:23;;;;;;;7.40;3.78;;;;;;;6.00;100.00;99162.16;5045216;28;20044;-52
2022/11/06 07:46:10;;;;;;;12.70;3.63;;;;;;;5.91;100.00;99163.41;5045124;28;20048;-51
2022/11/06 07:48:55;;;;;;;7.60;3.50;;;;;;;5.93;100.00;99159.00;5043065;28;20051;-48
2022/11/06 07:51:39;;;;;;;10.02;3.53;;;;;;;6.11;100.00;99159.97;5044497;28;20048;-51
2022/11/06 07:54:24;;;;;;;7.65;3.70;;;;;;;6.41;97.88;99154.31;5044918;28;20045;-53
2022/11/06 07:57:08;;;;;;;10.02;3.90;;;;;;;6.35;98.20;99171.97;5045037;28;20555;-50
2022/11/06 07:59:53;;;;;;;7.72;3.90;;;;;;;6.64;96.81;99157.63;5045334;28;20045;-55
2022/11/06 08:02:38;;;;;;;8.60;3.53;;;;;;;7.09;95.19;99161.66;5043274;28;20076;-48
2022/11/06 08:05:23;;;;;;;7.88;3.03;;;;;;;7.76;92.17;99163.66;5044631;28;20124;-47
2022/11/06 08:08:08;;;;;;;7.90;3.55;;;;;;;8.74;86.47;99169.06;5046787;28;20044;-51
2022/11/06 08:10:53;;;;;;;5.60;3.30;;;;;;;9.17;83.60;99174.59;5047811;28;20077;-52
2022/11/06 08:13:38;;;;;;;6.57;3.17;;;;;;;8.91;81.52;99169.06;5047501;28;20139;-54
2022/11/06 08:16:23;;;;;;;12.95;4.05;;;;;;;9.04;86.04;99170.03;5048358;28;20037;-61
2022/11/06 08:19:07;;;;;;;10.13;3.78;;;;;;;10.56;86.10;99172.59;5044493;28;20045;-56
2022/11/06 08:21:52;;;;;;;8.73;3.33;;;;;;;10.52;76.51;99165.03;5047981;28;20150;-55
2022/11/06 08:24:37;;;;;;;8.80;3.78;;;;;;;10.58;75.78;99162.88;5045804;28;20045;-56
2022/11/06 08:27:21;;;;;;;6.45;3.28;;;;;;;9.80;78.00;99164.91;5048222;28;20553;-52
2022/11/06 08:30:06;;;;;;;6.53;3.08;;;;;;;10.41;76.34;99173.53;5047684;28;20404;-56
2022/11/06 08:32:51;;;;;;;7.40;3.58;;;;;;;10.38;74.97;99155.41;5047366;28;20068;-58
2022/11/06 08:35:35;;;;;;;7.90;3.20;;;;;;;10.49;74.46;99163.47;5048941;28;20045;-55
2022/11/06 08:38:20;;;;;;;9.02;3.50;;;;;;;10.67;75.84;99153.63;5048230;28;20159;-55
2022/11/06 08:41:10;;;;;;;7.88;2.83;;;;;;;10.54;73.86;99150.91;5049234;28;20079;-57
2022/11/06 08:43:55;;;;;;;7.85;3.08;;;;;;;10.98;72.84;99153.44;5048501;28;20044;-53
2022/11/06 08:46:39;;;;;;;6.70;3.22;;;;;;;11.59;70.87;99160.00;5043675;28;20060;-55
2022/11/06 08:49:24;;;;;;;9.60;3.63;;;;;;;11.91;69.15;99157.00;5048433;28;20048;-58
2022/11/06 08:52:09;;;;;;;7.50;3.80;;;;;;;11.52;69.58;99158.75;5047430;28;20049;-56
2022/11/06 08:54:54;;;;;;;6.40;3.58;;;;;;;10.56;73.14;99154.28;5047418;28;20408;-58
2022/11/06 08:57:38;;;;;;;6.18;3.28;;;;;;;11.06;70.52;99153.78;5047960;28;20128;-60
2022/11/06 09:00:23;;;;;;;5.97;2.97;;;;;;;11.33;72.73;99157.31;5046729;28;20063;-55
2022/11/06 09:03:18;;;;;;;10.73;3.38;;;;;;;11.39;69.65;99154.28;5047099;28;20048;-55
2022/11/06 09:06:05;;;;;;;6.97;3.58;;;;;;;11.81;69.42;99156.81;5073402;28;20080;-56
2022/11/06 09:08:49;;;;;;;8.18;2.85;;;;;;;11.67;69.05;99149.03;5040608;28;20045;-59
2022/11/06 09:11:34;;;;;;;7.70;3.17;;;;;;;10.82;71.08;99140.47;5048090;28;20044;-59
2022/11/06 09:14:19;;;;;;;8.10;3.28;;;;;;;10.90;71.97;99146.06;5047505;28;20076;-58
2022/11/06 09:17:03;;;;;;;7.35;3.60;;;;;;;11.49;69.21;99146.66;5048560;28;20051;-57
2022/11/06 09:19:51;;;;;;;8.70;3.65;;;;;;;11.85;68.20;99146.09;5046760;28;20037;-58
2022/11/06 09:22:36;;;;;;;8.43;3.22;;;;;;;12.94;65.41;99139.41;5046233;28;20179;-60
2022/11/06 09:25:20;;;;;;;6.15;2.88;;;;;;;13.26;63.48;99138.00;5032767;28;20099;-57
2022/11/06 09:28:05;;;;;;;8.40;3.38;;;;;;;12.54;64.28;99129.13;5047600;28;20479;-56
2022/11/06 09:30:50;;;;;;;11.65;3.63;;;;;;;12.41;64.53;99126.53;5046530;28;20041;-61
2022/11/06 09:33:35;;;;;;;9.32;3.40;;;;;;;12.63;64.15;99117.94;5037313;28;20070;-57
2022/11/06 09:36:19;;;;;;;7.57;3.22;;;;;;;13.04;62.98;99118.53;5047768;28;20064;-57
2022/11/06 09:39:04;;;;;;;7.85;3.50;;;;;;;12.85;63.27;99115.56;5046290;28;20045;-59
2022/11/06 09:41:57;;;;;;;6.65;3.47;;;;;;;12.16;65.33;99125.63;5046704;28;20052;-61
2022/11/06 09:45:02;;;;;;;5.53;2.97;;;;;;;12.37;65.67;99111.94;5037597;28;20055;-62
2022/11/06 09:47:53;;;;;;;5.75;3.00;;;;;;;12.91;62.86;99115.97;5047602;28;20049;-58
2022/11/06 09:50:46;;;;;;;6.85;3.95;;;;;;;12.83;63.14;99117.50;5045573;28;20041;-57
2022/11/06 09:53:38;;;;;;;5.28;3.05;;;;;;;12.40;63.83;99117.78;5072623;28;20373;-57
2022/11/06 09:56:29;;;;;;;7.63;3.45;;;;;;;11.68;67.54;99113.94;5046066;28;20045;-59
2022/11/06 09:59:17;;;;;;;6.67;2.77;;;;;;;12.51;65.25;99110.94;5038226;28;20055;-60
2022/11/06 10:02:30;;;;;;;8.27;3.50;;;;;;;11.87;67.16;99112.69;5039933;28;20780;-61
2022/11/06 10:05:26;;;;;;;7.40;3.22;;;;;;;11.39;68.83;99109.69;5044870;28;20041;-56
2022/11/06 10:08:22;;;;;;;6.97;3.80;;;;;;;11.66;68.72;99116.69;5045599;28;20052;-60
2022/11/06 10:11:18;;;;;;;6.90;3.05;;;;;;;11.75;68.17;99111.75;5046391;28;20433;-56
2022/11/06 10:14:15;;;;;;;7.65;2.92;;;;;;;12.21;66.22;99096.44;5046695;28;20045;-57
2022/11/06 10:17:38;;;;;;;7.53;3.35;;;;;;;12.19;66.25;99102.59;5045695;28;20041;-52
2022/11/06 10:20:53;;;;;;;6.93;3.15;;;;;;;12.62;65.52;99097.03;4981519;28;20110;-53
2022/11/06 10:23:48;;;;;;;6.25;3.03;;;;;;;13.76;61.98;99094.84;4974658;28;20065;-59
2022/11/06 10:26:38;;;;;;;7.22;3.10;;;;;;;14.35;59.25;99092.09;4984022;28;20132;-52
2022/11/06 10:29:28;;;;;;;7.15;3.00;;;;;;;14.93;57.71;99089.34;4984860;28;20956;-55
2022/11/06 10:32:34;;;;;;;5.72;2.15;;;;;;;15.03;57.53;99087.66;4983093;28;22107;-56
2022/11/06 10:35:36;;;;;;;9.82;3.70;;;;;;;15.67;55.34;99089.47;4982933;28;20046;-59
2022/11/06 10:38:32;;;;;;;5.65;2.33;;;;;;;16.21;53.89;99069.00;4981399;28;20067;-57
2022/11/06 10:41:21;;;;;;;6.75;2.38;;;;;;;16.96;51.47;99080.09;4977418;28;20047;-57
2022/11/06 10:44:19;;;;;;;6.28;2.28;;;;;;;16.91;51.45;99066.47;4979728;28;20445;-63
2022/11/06 10:47:19;;;;;;;10.15;2.92;;;;;;;14.51;57.18;99062.72;4967130;28;20070;-53
2022/11/06 10:50:11;;;;;;;6.13;2.30;;;;;;;13.88;60.07;99072.00;4994319;28;20204;-60
2022/11/06 10:53:07;;;;;;;5.78;2.10;;;;;;;15.21;56.31;99068.63;5044337;28;20052;-55
2022/11/06 10:56:19;;;;;;;6.07;2.10;;;;;;;16.00;53.54;99074.34;5045950;28;20037;-56
2022/11/06 10:59:04;;;;;;;4.25;2.17;;;;;;;16.83;51.50;99068.00;5044493;28;20124;-57
2022/11/06 11:01:49;;;;;;;4.55;2.33;;;;;;;17.11;50.15;99065.53;5045312;28;20055;-60
2022/11/06 11:04:34;;;;;;;5.28;1.98;;;;;;;17.54;49.93;99059.06;5041515;28;20202;-55
2022/11/06 11:07:19;;;;;;;10.05;2.92;;;;;;;17.94;49.33;99055.28;5044999;28;20087;-54
2022/11/06 11:10:27;;;;;;;7.15;2.65;;;;;;;17.20;51.08;99057.72;5043229;28;20664;-59
2022/11/06 11:13:19;;;;;;;8.95;2.92;;;;;;;16.22;51.64;99054.00;5044351;28;20055;-59
2022/11/06 11:16:04;;;;;;;;;;;;;;;16.95;50.50;99059.94;5045982;28;20037;-60
2022/11/06 11:18:49;;;;;;;4.15;2.03;;;;;;;17.43;49.03;99050.28;5044616;28;19924;-61
2022/11/06 11:21:34;;;;;;;9.98;2.55;;;;;;;16.12;51.89;99038.91;5044741;28;20491;-59
2022/11/06 11:24:18;;;;;;;7.53;2.80;;;;;;;15.36;54.94;99050.63;5045254;28;20521;-62
2022/11/06 11:27:06;;;;;;;9.68;3.20;;;;;;;15.97;54.06;99040.25;5044077;28;21159;-61
2022/11/06 11:29:50;;;;;;;8.02;2.30;;;;;;;17.04;50.95;99040.56;5045741;28;20033;-60
2022/11/06 11:32:35;;;;;;;5.32;2.42;;;;;;;16.25;51.58;99033.38;5043614;28;20053;-60
2022/11/06 11:35:25;;;;;;;6.30;2.38;;;;;;;15.29;54.44;99037.16;5045217;28;20045;-61
2022/11/06 11:38:14;;;;;;;3.70;1.83;;;;;;;15.54;54.13;99039.50;5045836;28;20622;-64
2022/11/06 11:41:19;;;;;;;4.18;2.08;;;;;;;15.96;53.67;99023.53;5044171;28;20037;-63
2022/11/06 11:44:13;;;;;;;5.90;2.38;;;;;;;15.57;54.16;99021.59;5049814;28;20480;-59
2022/11/06 11:46:57;;;;;;;5.45;2.40;;;;;;;16.37;54.45;99012.97;5038349;28;20045;-60
2022/11/06 11:49:42;;;;;;;4.95;2.90;;;;;;;16.89;50.96;99005.78;5049044;28;20226;-61
2022/11/06 11:52:27;;;;;;;7.15;2.30;;;;;;;17.31;49.31;99001.13;5033286;28;20064;-60
2022/11/06 11:55:20;;;;;;;4.93;1.98;;;;;;;17.35;49.06;99005.16;5044704;28;20503;-49
2022/11/06 11:58:17;;;;;;;7.75;3.00;;;;;;;17.05;50.07;99002.56;5048761;28;20064;-62
2022/11/06 12:01:06;;;;;;;6.25;1.90;;;;;;;17.68;49.87;99002.13;5048132;28;20128;-57
2022/11/06 12:03:51;;;;;;;4.38;1.70;;;;;;;18.31;46.50;98995.25;5048802;28;20067;-66
2022/11/06 12:06:49;;;;;;;5.32;1.92;;;;;;;18.96;48.42;99000.47;5032274;28;20368;-70
2022/11/06 12:09:41;;;;;;;5.30;2.00;;;;;;;18.87;44.11;99002.22;5046868;28;20098;-70
2022/11/06 12:12:30;;;;;;;;;;;;;;;19.32;42.43;98996.94;5046894;28;20199;-72
2022/11/06 12:15:23;;;;;;;6.03;1.65;;;;;;;18.88;43.88;99000.41;5044503;28;19932;-71
2022/11/06 12:18:14;;;;;;;4.18;1.90;;;;;;;18.81;45.31;98992.22;5048406;28;20554;-70
2022/11/06 12:21:20;;;;;;;5.32;1.70;;;;;;;18.92;44.45;98996.44;5047796;28;20820;-70
2022/11/06 12:24:14;;;;;;;4.68;1.30;;;;;;;18.45;44.70;98988.63;5049363;28;20040;-69
2022/11/06 12:27:09;;;;;;;5.10;1.95;;;;;;;18.45;44.68;98987.78;5047579;28;20864;-69
2022/11/06 12:30:09;;;;;;;6.15;2.38;;;;;;;18.00;46.36;98974.38;5048534;28;20068;-59
2022/11/06 12:33:09;;;;;;;4.18;1.67;;;;;;;18.54;44.06;98986.03;5048054;28;20049;-61
2022/11/06 12:36:03;;;;;;;5.38;1.98;;;;;;;18.07;48.29;98985.19;5047384;28;20490;-60
2022/11/06 12:38:47;;;;;;;5.57;2.13;;;;;;;17.57;47.43;98974.84;5044471;28;20040;-59
2022/11/06 12:41:40;;;;;;;5.85;2.03;;;;;;;18.54;44.49;98980.75;5044509;28;20098;-71
2022/11/06 12:44:25;;;;;;;4.32;1.83;;;;;;;18.53;49.18;98973.75;5043778;28;20044;-70
2022/11/06 12:47:20;;;;;;;5.10;1.75;;;;;;;18.52;48.20;98972.94;5045465;28;20566;-71
2022/11/06 12:50:25;;;;;;;5.40;1.38;;;;;;;19.05;45.75;98969.50;5045613;28;20045;-72
2022/11/06 12:53:27;;;;;;;3.38;1.27;;;;;;;18.74;47.06;98962.81;5044355;28;20430;-71
2022/11/06 12:56:20;;;;;;;4.03;1.48;;;;;;;18.40;44.15;98959.06;5044429;28;20502;-70
2022/11/06 12:59:29;;;;;;;5.70;1.40;;;;;;;18.95;46.39;98953.69;5045115;28;20369;-73
2022/11/06 13:02:47;;;;;;;3.15;1.65;;;;;;;18.62;44.26;98956.09;5043409;28;20043;-70
2022/11/06 13:05:39;;;;;;;5.50;1.75;;;;;;;18.11;44.58;98957.41;5043869;28;20091;-71
2022/11/06 13:08:24;;;;;;;5.05;1.90;;;;;;;16.98;47.34;98953.81;5044775;28;20469;-70
2022/11/06 13:11:19;;;;;;;2.80;1.30;;;;;;;16.54;49.33;98949.81;5045054;28;20136;-71
2022/11/06 13:14:43;;;;;;;4.22;2.10;;;;;;;17.31;46.43;98951.69;5044867;28;20510;-69
2022/11/06 13:17:32;;;;;;;5.75;2.42;;;;;;;15.59;51.76;98948.38;5003234;28;20049;-70
2022/11/06 13:20:25;;;;;;;11.27;2.20;;;;;;;15.59;57.74;98951.00;5003289;28;20152;-74
2022/11/06 13:23:33;;;;;;;4.60;1.33;;;;;;;17.13;49.64;98942.78;5005371;28;20128;-71
2022/11/06 13:26:27;;;;;;;4.72;1.55;;;;;;;17.67;52.03;98947.47;4964732;28;20121;-70
2022/11/06 13:29:16;;;;;;;3.00;1.60;;;;;;;17.77;47.00;98939.50;4990881;28;20050;-67
2022/11/06 13:32:08;;;;;;;6.15;2.30;;;;;;;17.15;48.79;98935.56;5005027;28;20409;-72